Time;durP1;ratioP1;P1;durP2;ratioP2;P2;SDS_P1;SDS_P2;PMS_P1;PMS_P2;Temp;Humidity;BMP_temperature;BMP_pressure;BME280_temperature;BME280_humidity;BME280_pressure;Samples;Min_cycle;Max_cycle;Signal;HPM_P1;HPM_P2
2021/11/27 00:00:08;;;;;;;25.80;8.88;;;8.30;58.60;;;;;;6175153;28;20658;-72
2021/11/27 00:03:15;;;;;;;19.27;8.20;;;8.20;58.70;;;;;;6173299;28;20035;-71
2021/11/27 00:06:16;;;;;;;18.17;7.30;;;8.20;58.90;;;;;;6140901;28;20035;-70
2021/11/27 00:09:17;;;;;;;20.80;7.00;;;8.20;59.00;;;;;;6174714;28;20043;-70
2021/11/27 00:12:18;;;;;;;22.13;8.75;;;8.20;59.00;;;;;;6174072;28;20035;-70
2021/11/27 00:15:21;;;;;;;32.15;8.55;;;8.20;59.00;;;;;;6156741;28;20376;-70
2021/11/27 00:18:23;;;;;;;14.93;8.00;;;8.20;59.10;;;;;;6156966;28;20042;-70
2021/11/27 00:21:24;;;;;;;17.10;7.70;;;8.20;59.20;;;;;;6157415;28;20039;-70
2021/11/27 00:24:25;;;;;;;20.42;9.10;;;8.20;59.20;;;;;;6168406;28;20126;-70
2021/11/27 00:27:28;;;;;;;21.58;8.82;;;8.20;59.20;;;;;;6157483;28;20145;-71
2021/11/27 00:30:32;;;;;;;18.90;8.32;;;8.10;59.20;;;;;;6157373;28;20043;-70
2021/11/27 00:33:34;;;;;;;16.13;7.68;;;8.00;59.40;;;;;;6157673;28;20376;-70
2021/11/27 00:36:35;;;;;;;30.33;8.23;;;8.00;59.60;;;;;;6173417;28;20588;-70
2021/11/27 00:39:36;;;;;;;20.38;8.18;;;8.00;59.60;;;;;;6157588;28;20043;-70
2021/11/27 00:42:37;;;;;;;16.83;8.23;;;8.00;59.70;;;;;;6157107;28;20046;-70
2021/11/27 00:45:40;;;;;;;20.70;9.13;;;8.10;59.70;;;;;;6160440;28;20105;-70
2021/11/27 00:48:42;;;;;;;26.20;8.20;;;8.10;59.60;;;;;;6161156;28;20039;-71
2021/11/27 00:51:43;;;;;;;23.05;9.98;;;8.10;59.60;;;;;;6199561;28;20189;-70
2021/11/27 00:54:44;;;;;;;19.70;8.05;;;8.10;59.60;;;;;;6202658;28;20100;-70
2021/11/27 00:57:48;;;;;;;23.67;8.43;;;8.20;59.60;;;;;;6201293;28;20116;-70
2021/11/27 01:00:55;;;;;;;23.75;8.88;;;8.20;59.60;;;;;;6185289;28;20414;-71
2021/11/27 01:03:57;;;;;;;23.45;9.23;;;8.20;59.50;;;;;;6201290;28;20146;-71
2021/11/27 01:06:58;;;;;;;20.20;9.20;;;8.30;59.50;;;;;;6165018;28;20100;-70
2021/11/27 01:09:59;;;;;;;24.08;8.80;;;8.40;59.40;;;;;;6185673;28;20104;-69
2021/11/27 01:13:01;;;;;;;18.98;8.13;;;8.50;59.30;;;;;;6201908;28;20085;-70
2021/11/27 01:16:03;;;;;;;27.55;10.43;;;8.50;59.20;;;;;;6184995;28;20039;-70
2021/11/27 01:19:05;;;;;;;26.98;10.00;;;8.50;59.10;;;;;;6201694;28;20042;-72
2021/11/27 01:22:10;;;;;;;22.65;9.52;;;8.60;59.10;;;;;;6167828;28;20074;-71
2021/11/27 01:25:11;;;;;;;16.65;7.28;;;8.50;59.00;;;;;;6184850;28;20034;-70
2021/11/27 01:28:15;;;;;;;15.35;8.20;;;8.50;59.20;;;;;;6184528;28;20053;-70
2021/11/27 01:31:17;;;;;;;19.90;7.40;;;8.50;59.30;;;;;;6202162;28;20050;-70
2021/11/27 01:34:18;;;;;;;13.77;6.07;;;8.40;59.30;;;;;;6201458;28;20490;-70
2021/11/27 01:37:20;;;;;;;16.38;6.55;;;8.40;59.40;;;;;;6184245;28;20034;-71
2021/11/27 01:40:24;;;;;;;22.35;6.40;;;8.40;59.50;;;;;;6184544;28;20042;-70
2021/11/27 01:43:26;;;;;;;16.92;7.22;;;8.40;59.50;;;;;;6167921;28;20549;-71
2021/11/27 01:46:27;;;;;;;12.63;5.43;;;8.30;59.50;;;;;;6184260;28;20034;-71
2021/11/27 01:49:29;;;;;;;13.98;5.50;;;8.30;59.50;;;;;;6183715;28;20034;-71
2021/11/27 01:52:30;;;;;;;13.13;5.03;;;8.30;59.50;;;;;;6200016;28;20065;-71
2021/11/27 01:55:32;;;;;;;14.27;5.32;;;8.40;59.60;;;;;;6184087;28;20026;-70
2021/11/27 01:58:34;;;;;;;16.13;6.07;;;8.40;59.50;;;;;;6177920;28;20059;-70
2021/11/27 02:01:36;;;;;;;8.07;4.65;;;8.40;59.50;;;;;;6184467;28;20027;-72
2021/11/27 02:04:37;;;;;;;10.70;5.22;;;8.40;59.50;;;;;;6183714;28;20117;-70
2021/11/27 02:07:40;;;;;;;9.95;4.75;;;8.40;59.60;;;;;;6183556;28;20049;-70
2021/11/27 02:10:43;;;;;;;8.27;3.45;;;8.40;59.60;;;;;;6167892;28;20035;-70
2021/11/27 02:13:45;;;;;;;8.55;4.32;;;8.40;59.60;;;;;;6183146;28;20364;-70
2021/11/27 02:16:47;;;;;;;6.22;2.88;;;8.40;59.60;;;;;;6184188;28;20507;-70
2021/11/27 02:19:49;;;;;;;6.80;2.72;;;8.40;59.60;;;;;;6200020;28;20379;-70
2021/11/27 02:22:50;;;;;;;6.95;3.63;;;8.50;59.60;;;;;;6162493;28;20122;-71
2021/11/27 02:25:52;;;;;;;13.55;3.85;;;8.50;59.50;;;;;;6183554;28;20034;-70
2021/11/27 02:28:59;;;;;;;11.00;4.85;;;8.50;59.50;;;;;;6183834;28;20030;-72
2021/11/27 02:32:01;;;;;;;17.02;5.40;;;8.50;59.50;;;;;;6182740;28;20042;-71
2021/11/27 02:35:03;;;;;;;12.73;5.55;;;8.50;59.50;;;;;;6166377;28;20038;-72
2021/11/27 02:38:05;;;;;;;12.60;5.38;;;8.50;59.50;;;;;;6183020;28;20058;-70
2021/11/27 02:41:06;;;;;;;10.30;4.47;;;8.50;59.60;;;;;;6199055;28;20463;-69
2021/11/27 02:44:08;;;;;;;10.00;4.75;;;8.50;59.50;;;;;;6198266;28;20046;-69
2021/11/27 02:47:11;;;;;;;10.25;4.45;;;8.60;59.50;;;;;;6188436;28;20184;-69
2021/11/27 02:50:13;;;;;;;12.90;5.68;;;8.60;59.30;;;;;;6199713;28;20121;-69
2021/11/27 02:53:16;;;;;;;11.05;4.78;;;8.60;59.00;;;;;;6182622;28;20077;-70
2021/11/27 02:56:18;;;;;;;19.10;7.07;;;8.60;58.70;;;;;;6199061;28;20587;-70
2021/11/27 02:59:21;;;;;;;13.85;5.07;;;8.60;58.70;;;;;;6182114;28;20074;-70
2021/11/27 03:02:23;;;;;;;17.60;6.85;;;8.70;58.80;;;;;;6181246;28;20053;-70
2021/11/27 03:05:25;;;;;;;15.25;6.47;;;8.70;58.50;;;;;;6155246;28;20086;-70
2021/11/27 03:08:26;;;;;;;15.65;5.72;;;8.70;58.50;;;;;;6177388;28;20117;-71
2021/11/27 03:11:28;;;;;;;15.90;6.80;;;8.70;58.50;;;;;;6157465;28;20471;-71
2021/11/27 03:14:30;;;;;;;19.80;8.65;;;8.80;58.50;;;;;;6199353;28;20038;-70
2021/11/27 03:17:31;;;;;;;22.70;8.15;;;8.80;58.60;;;;;;6181929;28;20068;-71
2021/11/27 03:20:32;;;;;;;17.10;6.60;;;8.80;58.70;;;;;;6181649;28;20452;-70
2021/11/27 03:23:35;;;;;;;20.67;7.82;;;8.80;58.80;;;;;;6199266;28;20035;-70
2021/11/27 03:26:38;;;;;;;21.15;7.00;;;8.80;59.00;;;;;;6182172;28;20359;-71
2021/11/27 03:29:41;;;;;;;18.17;5.80;;;8.80;59.10;;;;;;6182307;28;20026;-70
2021/11/27 03:32:42;;;;;;;13.35;6.00;;;8.80;59.20;;;;;;6175903;28;20409;-71
2021/11/27 03:35:48;;;;;;;13.32;5.82;;;8.80;59.30;;;;;;6180937;28;20023;-71
2021/11/27 03:38:54;;;;;;;17.63;7.30;;;8.80;59.20;;;;;;6181296;28;20057;-70
2021/11/27 03:42:00;;;;;;;20.92;7.07;;;8.90;59.30;;;;;;6182513;28;20533;-71
2021/11/27 03:45:04;;;;;;;23.85;8.27;;;8.90;59.30;;;;;;6198114;28;20027;-71
2021/11/27 03:48:08;;;;;;;22.73;7.93;;;8.80;59.30;;;;;;6181660;28;20073;-70
2021/11/27 03:51:26;;;;;;;21.00;6.25;;;8.80;59.30;;;;;;6172892;28;20038;-71
2021/11/27 03:54:28;;;;;;;14.10;7.00;;;8.80;59.30;;;;;;6173988;28;20043;-71
2021/11/27 03:57:29;;;;;;;14.75;6.88;;;8.80;59.20;;;;;;6174037;28;20382;-70
2021/11/27 04:00:30;;;;;;;14.60;6.30;;;8.70;59.30;;;;;;6157800;28;20038;-71
2021/11/27 04:03:33;;;;;;;14.02;6.22;;;8.70;59.40;;;;;;6174094;28;20035;-70
2021/11/27 04:06:36;;;;;;;14.77;6.85;;;8.70;59.60;;;;;;6189766;28;20035;-70
2021/11/27 04:09:37;;;;;;;12.52;5.95;;;8.70;59.70;;;;;;6173917;28;20097;-71
2021/11/27 04:12:38;;;;;;;18.05;7.25;;;8.60;59.70;;;;;;6175023;28;20057;-71
2021/11/27 04:15:39;;;;;;;17.88;7.28;;;8.60;59.80;;;;;;6173296;28;20043;-71
2021/11/27 04:18:41;;;;;;;19.00;7.15;;;8.60;60.00;;;;;;6175331;28;20165;-70
2021/11/27 04:21:42;;;;;;;15.98;5.93;;;8.60;60.10;;;;;;6210759;28;20039;-71
2021/11/27 04:24:43;;;;;;;13.43;6.22;;;8.60;60.20;;;;;;6178251;28;20057;-70
2021/11/27 04:27:45;;;;;;;14.85;5.75;;;8.60;60.20;;;;;;6178357;28;20042;-70
2021/11/27 04:30:46;;;;;;;12.55;4.95;;;8.50;60.20;;;;;;6178322;28;20039;-70
2021/11/27 04:33:49;;;;;;;16.40;5.45;;;8.50;60.30;;;;;;6177908;28;20049;-70
2021/11/27 04:36:51;;;;;;;14.73;5.30;;;8.40;60.50;;;;;;6177008;28;20035;-71
2021/11/27 04:39:52;;;;;;;15.02;4.63;;;8.50;60.60;;;;;;6193894;28;20039;-71
2021/11/27 04:42:53;;;;;;;9.90;4.03;;;8.50;60.70;;;;;;6178102;28;20058;-71
2021/11/27 04:45:55;;;;;;;7.20;3.50;;;8.50;60.90;;;;;;6161403;28;20460;-70
2021/11/27 04:48:57;;;;;;;12.18;3.58;;;8.50;60.60;;;;;;6154973;28;20078;-70
2021/11/27 04:51:59;;;;;;;7.57;3.22;;;8.60;60.50;;;;;;6184429;28;20038;-70
2021/11/27 04:55:00;;;;;;;7.20;3.60;;;8.60;60.70;;;;;;6175194;28;20039;-70
2021/11/27 04:58:03;;;;;;;8.40;3.63;;;8.70;60.60;;;;;;6162118;28;20035;-71
2021/11/27 05:01:04;;;;;;;12.60;4.65;;;8.70;60.30;;;;;;6162086;28;20037;-71
2021/11/27 05:04:30;;;;;;;12.95;4.38;;;8.70;60.20;;;;;;6178825;28;20042;-71
2021/11/27 05:07:31;;;;;;;10.57;4.18;;;8.70;60.10;;;;;;6161639;28;20093;-70
2021/11/27 05:10:34;;;;;;;10.65;4.63;;;8.70;60.10;;;;;;6175749;28;20516;-71
2021/11/27 05:13:39;;;;;;;4.57;2.97;;;8.70;60.20;;;;;;6160620;28;20066;-70
2021/11/27 05:16:41;;;;;;;7.95;3.80;;;8.70;60.20;;;;;;6161285;28;20225;-71
2021/11/27 05:19:42;;;;;;;8.32;3.30;;;8.70;60.20;;;;;;6166463;28;20039;-70
2021/11/27 05:22:53;;;;;;;8.43;3.13;;;8.70;60.30;;;;;;6183141;28;20084;-72
2021/11/27 05:25:57;;;;;;;7.43;3.28;;;8.80;60.30;;;;;;6166291;28;20030;-70
2021/11/27 05:29:16;;;;;;;9.95;3.55;;;8.80;60.20;;;;;;6174483;28;20118;-71
2021/11/27 05:35:38;;;;;;;10.10;4.05;;;8.70;60.40;;;;;;6166742;28;20101;-71
2021/11/27 05:38:41;;;;;;;10.23;3.05;;;8.70;60.50;;;;;;6191361;28;20105;-71
2021/11/27 05:41:44;;;;;;;7.85;3.47;;;8.70;60.50;;;;;;6175948;28;20039;-71
2021/11/27 05:44:47;;;;;;;6.72;3.40;;;8.70;60.50;;;;;;6142328;28;20403;-70
2021/11/27 05:47:49;;;;;;;8.90;3.70;;;8.70;60.30;;;;;;6173735;28;20049;-71
2021/11/27 05:50:56;;;;;;;11.40;5.63;;;8.70;60.30;;;;;;6165486;28;20100;-70
2021/11/27 05:53:57;;;;;;;14.15;4.70;;;8.70;60.30;;;;;;6158319;28;20122;-71
2021/11/27 05:56:58;;;;;;;11.23;4.47;;;8.70;60.20;;;;;;6174047;28;20388;-71
2021/11/27 06:00:00;;;;;;;8.73;3.58;;;8.70;60.10;;;;;;6175242;28;20031;-71
2021/11/27 06:03:01;;;;;;;9.80;4.82;;;8.80;60.10;;;;;;6189741;28;20531;-70
2021/11/27 06:06:02;;;;;;;14.57;5.30;;;8.80;60.10;;;;;;6173219;28;20074;-70
2021/11/27 06:09:04;;;;;;;7.78;3.35;;;8.80;60.20;;;;;;6168608;28;20533;-71
2021/11/27 06:12:05;;;;;;;8.23;3.55;;;8.80;60.20;;;;;;6174619;28;20071;-71
2021/11/27 06:15:07;;;;;;;9.27;4.43;;;8.80;60.30;;;;;;6174704;28;20039;-70
2021/11/27 06:18:08;;;;;;;11.48;4.35;;;8.80;60.30;;;;;;6173077;28;20567;-71
2021/11/27 06:21:09;;;;;;;11.48;5.30;;;8.90;60.50;;;;;;6173014;28;20104;-72
2021/11/27 06:24:10;;;;;;;11.05;3.38;;;9.00;60.50;;;;;;6189696;28;20054;-71
2021/11/27 06:27:11;;;;;;;7.00;4.15;;;9.00;60.60;;;;;;6169150;28;20069;-72
2021/11/27 06:30:12;;;;;;;7.90;3.65;;;8.90;60.70;;;;;;6173444;28;20042;-73
2021/11/27 06:33:14;;;;;;;5.53;3.20;;;8.90;60.80;;;;;;6172464;28;20027;-73
2021/11/27 06:36:15;;;;;;;7.15;3.70;;;8.80;61.00;;;;;;6172195;28;20050;-71
2021/11/27 06:39:16;;;;;;;6.32;2.97;;;8.70;61.30;;;;;;6173069;28;20039;-72
2021/11/27 06:42:18;;;;;;;7.40;2.97;;;8.70;61.50;;;;;;6174053;28;20039;-72
2021/11/27 06:45:39;;;;;;;4.35;2.55;;;8.70;61.70;;;;;;6171305;28;20376;-71
2021/11/27 06:48:43;;;;;;;13.68;3.65;;;8.70;61.80;;;;;;6150037;28;20049;-71
2021/11/27 06:51:46;;;;;;;9.57;3.25;;;8.70;61.80;;;;;;6213364;28;20057;-71
2021/11/27 06:54:47;;;;;;;10.00;4.07;;;8.70;61.70;;;;;;6199014;28;20049;-72
2021/11/27 06:57:48;;;;;;;7.85;3.80;;;8.70;61.70;;;;;;6197901;28;20452;-70
2021/11/27 07:00:49;;;;;;;6.45;3.08;;;8.80;61.60;;;;;;6182056;28;20073;-70
2021/11/27 07:04:22;;;;;;;9.40;3.95;;;8.70;61.40;;;;;;6092016;29;20115;-71
2021/11/27 07:07:42;;;;;;;5.97;2.95;;;8.80;61.50;;;;;;6084169;29;20048;-71
2021/11/27 07:11:01;;;;;;;10.15;3.90;;;8.80;61.40;;;;;;6085882;29;20055;-71
2021/11/27 07:14:02;;;;;;;10.93;4.40;;;8.80;61.40;;;;;;6114730;29;20478;-71
2021/11/27 07:17:04;;;;;;;8.13;3.60;;;8.70;61.60;;;;;;6083097;29;20372;-71
2021/11/27 07:20:07;;;;;;;6.70;3.63;;;8.70;61.90;;;;;;6071494;29;20056;-71
2021/11/27 07:23:09;;;;;;;15.13;3.17;;;8.60;62.00;;;;;;6083116;29;20032;-71
2021/11/27 07:26:10;;;;;;;5.47;2.72;;;8.70;62.20;;;;;;6073836;29;20565;-70
2021/11/27 07:29:32;;;;;;;9.90;3.05;;;8.60;62.20;;;;;;6104690;29;20044;-70
2021/11/27 07:32:34;;;;;;;6.97;3.45;;;8.70;62.30;;;;;;6083015;29;20028;-71
2021/11/27 07:35:35;;;;;;;6.93;3.35;;;8.70;62.30;;;;;;6082610;29;20032;-71
2021/11/27 07:38:36;;;;;;;12.18;4.60;;;8.60;62.30;;;;;;6109998;28;20110;-70
2021/11/27 07:41:39;;;;;;;8.40;3.72;;;8.70;62.60;;;;;;6173793;28;20030;-71
2021/11/27 07:44:48;;;;;;;10.93;4.43;;;8.70;62.80;;;;;;6189127;28;20136;-71
2021/11/27 07:48:08;;;;;;;8.30;3.47;;;8.60;62.90;;;;;;6194886;28;20038;-71
2021/11/27 07:51:30;;;;;;;6.65;3.55;;;8.50;63.40;;;;;;6174154;28;20058;-71
2021/11/27 07:54:32;;;;;;;9.88;3.63;;;8.30;64.00;;;;;;6165527;28;20076;-71
2021/11/27 07:57:33;;;;;;;7.95;3.35;;;8.30;64.60;;;;;;6185510;28;20125;-71
2021/11/27 08:00:34;;;;;;;9.68;3.92;;;8.20;65.00;;;;;;6201563;28;20033;-70
2021/11/27 08:03:35;;;;;;;9.05;3.92;;;8.10;65.30;;;;;;6203175;28;20482;-70
2021/11/27 08:06:37;;;;;;;9.52;4.80;;;8.10;65.40;;;;;;6185780;28;20030;-70
2021/11/27 08:09:38;;;;;;;11.32;4.90;;;8.20;65.60;;;;;;6168233;28;20054;-70
2021/11/27 08:12:39;;;;;;;10.80;4.60;;;8.20;65.50;;;;;;6202775;28;20034;-71
2021/11/27 08:15:40;;;;;;;9.32;5.05;;;8.10;65.50;;;;;;6202962;28;20031;-70
2021/11/27 08:18:42;;;;;;;10.32;4.63;;;8.10;65.60;;;;;;6164371;28;20034;-70
2021/11/27 08:21:43;;;;;;;12.30;4.95;;;8.10;65.70;;;;;;6202681;28;20423;-70
2021/11/27 08:24:44;;;;;;;11.30;5.18;;;8.10;65.70;;;;;;6185336;28;20040;-70
2021/11/27 08:27:45;;;;;;;10.48;5.18;;;8.10;65.70;;;;;;6203129;28;20360;-71
2021/11/27 08:30:46;;;;;;;11.35;5.70;;;8.20;65.80;;;;;;6200909;28;20034;-70
2021/11/27 08:33:49;;;;;;;12.32;5.82;;;8.20;65.70;;;;;;6185124;28;20064;-71
2021/11/27 08:36:50;;;;;;;12.32;5.60;;;8.30;65.60;;;;;;6201689;28;20126;-71
2021/11/27 08:39:52;;;;;;;13.00;6.13;;;8.40;65.40;;;;;;6184455;28;20383;-71
2021/11/27 08:42:53;;;;;;;16.00;6.78;;;8.40;65.10;;;;;;6168623;28;20104;-72
2021/11/27 08:45:54;;;;;;;11.55;5.85;;;8.60;65.10;;;;;;6202371;28;20046;-70
2021/11/27 08:48:55;;;;;;;14.63;6.13;;;8.80;65.00;;;;;;6205427;28;20050;-71
2021/11/27 08:51:56;;;;;;;13.20;5.75;;;9.00;64.70;;;;;;6202327;28;20450;-71
2021/11/27 08:54:58;;;;;;;12.40;6.10;;;9.10;64.10;;;;;;6201417;28;20050;-72
2021/11/27 08:57:59;;;;;;;12.65;4.55;;;9.20;63.70;;;;;;6200338;28;20083;-71
2021/11/27 09:01:00;;;;;;;15.40;6.53;;;9.20;63.50;;;;;;6211169;28;20359;-71
2021/11/27 09:04:02;;;;;;;11.73;5.70;;;9.30;63.60;;;;;;6165561;28;20100;-72
2021/11/27 09:07:04;;;;;;;17.30;5.53;;;9.30;63.50;;;;;;6180326;28;20372;-71
2021/11/27 09:10:08;;;;;;;18.10;6.80;;;9.30;63.30;;;;;;6180403;28;20030;-72
2021/11/27 09:13:09;;;;;;;14.50;5.78;;;9.40;63.10;;;;;;6196506;28;20070;-71
2021/11/27 09:16:11;;;;;;;15.80;6.75;;;9.50;63.10;;;;;;6170982;28;20525;-71
2021/11/27 09:19:12;;;;;;;20.20;6.68;;;9.50;63.00;;;;;;6197614;28;20117;-71
2021/11/27 09:22:14;;;;;;;9.43;4.82;;;9.60;63.00;;;;;;6198428;28;20050;-72
2021/11/27 09:25:15;;;;;;;16.48;6.18;;;9.70;62.90;;;;;;6196247;28;20034;-72
2021/11/27 09:28:16;;;;;;;20.65;5.90;;;9.80;62.70;;;;;;6193936;28;20374;-71
2021/11/27 09:31:17;;;;;;;15.73;6.65;;;9.80;62.50;;;;;;6177461;28;20054;-71
2021/11/27 09:34:19;;;;;;;16.10;7.03;;;9.80;62.20;;;;;;6180588;28;20041;-71
2021/11/27 09:37:22;;;;;;;18.70;6.00;;;9.80;62.00;;;;;;6197355;28;20031;-71
2021/11/27 09:40:23;;;;;;;12.52;5.63;;;9.80;61.90;;;;;;6179225;28;20121;-71
2021/11/27 09:43:24;;;;;;;14.20;6.30;;;9.80;61.90;;;;;;6193817;28;20031;-72
2021/11/27 09:46:27;;;;;;;14.65;5.50;;;9.80;61.80;;;;;;6197083;28;20038;-71
2021/11/27 09:49:29;;;;;;;19.95;6.70;;;9.70;61.50;;;;;;6181802;28;20432;-71
2021/11/27 09:52:30;;;;;;;13.82;5.93;;;9.70;61.20;;;;;;6179794;28;20046;-71
2021/11/27 09:55:31;;;;;;;15.80;6.88;;;9.60;60.80;;;;;;6185551;28;20058;-71
2021/11/27 09:58:34;;;;;;;14.70;6.75;;;9.50;60.70;;;;;;6196684;28;20120;-72
2021/11/27 10:01:37;;;;;;;15.05;6.43;;;9.40;60.90;;;;;;6177960;28;20045;-72
2021/11/27 10:04:42;;;;;;;15.20;7.47;;;9.30;61.00;;;;;;6188395;28;20089;-74
2021/11/27 10:07:47;;;;;;;18.15;8.27;;;9.30;61.60;;;;;;6184255;28;20038;-74
2021/11/27 10:10:51;;;;;;;18.63;8.25;;;9.30;61.90;;;;;;6175645;28;20471;-73
2021/11/27 10:13:52;;;;;;;13.43;6.90;;;9.30;62.00;;;;;;6159498;28;20038;-73
2021/11/27 10:17:03;;;;;;;24.60;7.32;;;9.40;61.90;;;;;;6172518;28;20147;-73
2021/11/27 10:20:07;;;;;;;12.55;6.18;;;9.30;61.90;;;;;;6156038;28;20062;-71
2021/11/27 10:23:09;;;;;;;19.05;7.22;;;9.40;62.10;;;;;;6190613;28;20042;-73
2021/11/27 10:26:33;;;;;;;14.60;6.57;;;9.40;62.10;;;;;;6171969;28;20122;-72
2021/11/27 10:29:35;;;;;;;17.05;6.72;;;9.50;62.00;;;;;;6174660;28;20475;-71
2021/11/27 10:32:39;;;;;;;15.30;6.70;;;9.50;61.60;;;;;;6189680;28;20390;-71
2021/11/27 10:35:57;;;;;;;15.00;7.00;;;9.50;61.60;;;;;;6166741;28;20038;-70
2021/11/27 10:39:06;;;;;;;12.98;5.72;;;9.60;61.70;;;;;;6166938;28;20427;-71
2021/11/27 10:42:10;;;;;;;11.75;6.13;;;9.60;61.40;;;;;;6188101;28;20045;-71
2021/11/27 10:45:18;;;;;;;11.55;4.95;;;9.70;61.10;;;;;;6185189;28;20027;-71
2021/11/27 10:48:21;;;;;;;13.83;5.90;;;9.60;60.90;;;;;;6188760;28;20050;-71
2021/11/27 10:51:23;;;;;;;13.00;5.30;;;9.60;60.90;;;;;;6186030;28;20042;-70
2021/11/27 10:54:24;;;;;;;13.95;5.47;;;9.70;60.80;;;;;;6176988;28;20031;-72
2021/11/27 10:57:27;;;;;;;17.23;4.68;;;9.70;60.90;;;;;;6179796;28;20420;-72
2021/11/27 11:00:38;;;;;;;10.23;5.03;;;9.80;60.70;;;;;;6188911;28;20045;-71
2021/11/27 11:03:39;;;;;;;9.50;4.45;;;9.90;60.40;;;;;;6188402;28;20061;-71
2021/11/27 11:06:40;;;;;;;10.05;5.20;;;9.90;60.10;;;;;;6181558;28;20031;-72
2021/11/27 11:10:12;;;;;;;11.13;5.20;;;9.90;60.10;;;;;;6173863;28;20038;-71
2021/11/27 11:13:14;;;;;;;14.80;6.07;;;9.90;60.00;;;;;;6181151;28;20459;-72
2021/11/27 11:16:15;;;;;;;11.23;4.63;;;9.90;60.10;;;;;;6183409;28;20031;-71
2021/11/27 11:19:20;;;;;;;14.00;6.05;;;10.00;60.10;;;;;;6192667;28;20045;-71
2021/11/27 11:22:23;;;;;;;16.30;5.30;;;10.10;60.10;;;;;;6191220;28;20122;-71
2021/11/27 11:25:25;;;;;;;11.57;5.03;;;10.20;60.10;;;;;;6181733;28;20027;-72
2021/11/27 11:28:30;;;;;;;17.92;6.13;;;10.30;59.90;;;;;;6176711;28;20046;-71
2021/11/27 11:31:34;;;;;;;13.75;5.95;;;10.30;59.40;;;;;;6188335;28;20036;-72
2021/11/27 11:34:35;;;;;;;17.52;6.00;;;10.40;59.50;;;;;;6189691;28;20085;-72
2021/11/27 11:37:37;;;;;;;12.77;5.40;;;10.50;59.60;;;;;;6189348;28;20034;-72
2021/11/27 11:40:43;;;;;;;12.43;5.53;;;10.70;59.60;;;;;;6157670;28;20128;-72
2021/11/27 11:43:45;;;;;;;14.13;4.88;;;11.00;59.30;;;;;;6193363;28;20222;-72
2021/11/27 11:46:46;;;;;;;11.27;4.72;;;11.10;58.90;;;;;;6186699;28;20031;-72
2021/11/27 11:49:59;;;;;;;12.52;4.53;;;11.20;58.70;;;;;;6159716;28;20042;-72
2021/11/27 11:53:10;;;;;;;11.38;4.32;;;11.30;58.60;;;;;;6173289;28;20089;-70
2021/11/27 11:56:11;;;;;;;10.35;3.97;;;11.40;58.30;;;;;;6157600;28;20030;-71
2021/11/27 11:59:34;;;;;;;6.85;3.42;;;11.50;58.20;;;;;;6187983;28;20085;-72
2021/11/27 12:02:43;;;;;;;9.27;3.67;;;11.50;57.90;;;;;;6189982;28;20026;-72
2021/11/27 12:05:54;;;;;;;21.63;3.63;;;11.60;58.00;;;;;;6160510;28;20164;-71
2021/11/27 12:08:56;;;;;;;9.65;4.22;;;11.70;57.80;;;;;;6178150;28;20436;-71
2021/11/27 12:11:58;;;;;;;14.43;5.65;;;11.70;57.70;;;;;;6174727;28;20043;-71
2021/11/27 12:15:01;;;;;;;13.10;7.20;;;11.70;57.60;;;;;;6160218;28;20070;-72
2021/11/27 12:18:01;;;;;;;14.73;5.88;;;11.80;57.70;;;;;;6155622;28;20098;-72
2021/11/27 12:21:13;;;;;;;8.57;4.13;;;11.80;57.80;;;;;;6183874;28;20456;-71
2021/11/27 12:24:23;;;;;;;12.00;4.60;;;11.70;57.80;;;;;;6177090;28;20039;-71
2021/11/27 12:27:24;;;;;;;9.95;4.28;;;11.60;57.60;;;;;;6169923;28;20035;-72
2021/11/27 12:30:29;;;;;;;8.50;4.13;;;11.40;57.60;;;;;;6183961;28;20041;-72
2021/11/27 12:34:01;;;;;;;7.10;3.42;;;11.40;57.60;;;;;;6157161;28;20456;-71
2021/11/27 12:37:02;;;;;;;8.23;3.97;;;11.20;57.80;;;;;;6177323;28;20054;-72
2021/11/27 12:40:03;;;;;;;9.27;4.43;;;11.10;58.10;;;;;;6180310;28;20067;-72
2021/11/27 12:43:12;;;;;;;12.35;4.85;;;11.00;58.50;;;;;;6201591;28;20056;-72
2021/11/27 12:46:30;;;;;;;8.07;3.45;;;11.00;58.80;;;;;;6201401;28;20093;-72
2021/11/27 12:49:34;;;;;;;5.87;3.23;;;10.90;59.00;;;;;;6185188;28;20074;-72
2021/11/27 12:52:40;;;;;;;10.10;3.65;;;10.90;59.10;;;;;;6183692;28;20130;-72
2021/11/27 12:55:42;;;;;;;10.10;3.70;;;10.90;59.10;;;;;;6150747;28;20165;-74
2021/11/27 12:58:43;;;;;;;7.85;3.30;;;10.80;59.30;;;;;;6189661;28;20078;-72
2021/11/27 13:01:45;;;;;;;11.32;4.03;;;10.80;59.50;;;;;;6177456;28;20122;-73
2021/11/27 13:04:46;;;;;;;6.78;3.88;;;10.80;59.60;;;;;;6176483;28;20047;-71
2021/11/27 13:07:48;;;;;;;8.70;4.03;;;10.80;59.60;;;;;;6157896;28;20034;-73
2021/11/27 13:10:51;;;;;;;10.25;3.63;;;10.70;59.50;;;;;;6176911;28;20113;-74
2021/11/27 13:13:52;;;;;;;6.60;3.63;;;10.60;59.70;;;;;;6174664;28;20057;-75
2021/11/27 13:17:02;;;;;;;11.75;4.35;;;10.60;59.90;;;;;;6175143;28;20053;-72
2021/11/27 13:20:04;;;;;;;12.95;4.80;;;10.50;60.10;;;;;;6172086;28;20031;-73
2021/11/27 13:23:05;;;;;;;13.18;5.45;;;10.50;60.40;;;;;;6173059;28;20041;-73
2021/11/27 13:26:10;;;;;;;13.73;6.28;;;10.60;60.60;;;;;;6175806;28;20050;-72
2021/11/27 13:29:12;;;;;;;14.88;6.90;;;10.70;60.50;;;;;;6170886;28;20034;-72
2021/11/27 13:32:13;;;;;;;15.00;6.38;;;10.70;60.40;;;;;;6175573;28;20581;-72
2021/11/27 13:35:21;;;;;;;37.50;13.18;;;10.70;60.50;;;;;;6185686;28;20038;-72
2021/11/27 13:38:26;;;;;;;16.00;7.07;;;10.80;60.60;;;;;;6190664;28;20070;-72
2021/11/27 13:41:28;;;;;;;21.13;8.18;;;10.90;60.70;;;;;;6173365;28;20035;-72
2021/11/27 13:44:46;;;;;;;22.17;8.20;;;10.90;60.60;;;;;;6174979;28;20058;-72
2021/11/27 13:47:53;;;;;;;17.33;7.35;;;10.90;60.90;;;;;;6168604;28;20470;-73
2021/11/27 13:50:54;;;;;;;13.85;7.00;;;10.90;61.20;;;;;;6169990;28;20186;-73
2021/11/27 13:53:56;;;;;;;17.58;8.30;;;10.90;61.30;;;;;;6156396;28;20101;-72
2021/11/27 13:56:57;;;;;;;18.00;7.53;;;10.90;61.50;;;;;;6175177;28;20042;-73
2021/11/27 14:00:12;;;;;;;13.38;6.65;;;10.90;61.80;;;;;;6174969;28;20098;-72
2021/11/27 14:03:18;;;;;;;16.75;8.02;;;10.80;62.00;;;;;;6158008;28;20041;-72
2021/11/27 14:06:19;;;;;;;19.15;9.00;;;10.80;62.00;;;;;;6175696;28;20473;-72
2021/11/27 14:09:20;;;;;;;16.92;7.97;;;10.90;62.40;;;;;;6172961;28;20377;-72
2021/11/27 14:12:40;;;;;;;15.52;7.07;;;10.80;62.40;;;;;;6158178;28;20456;-71
2021/11/27 14:15:43;;;;;;;17.65;7.78;;;10.70;62.50;;;;;;6155084;28;20058;-72
2021/11/27 14:18:44;;;;;;;15.82;6.40;;;10.70;62.70;;;;;;6172972;28;20042;-72
2021/11/27 14:22:05;;;;;;;13.48;5.90;;;10.70;62.80;;;;;;6173816;28;20027;-72
2021/11/27 14:25:10;;;;;;;13.73;6.00;;;10.60;62.80;;;;;;6173241;28;20122;-73
2021/11/27 14:28:14;;;;;;;4.20;2.45;;;10.50;63.00;;;;;;6173560;28;20073;-72
2021/11/27 14:31:29;;;;;;;2.75;0.90;;;10.40;62.90;;;;;;6173657;28;20039;-72
2021/11/27 14:34:34;;;;;;;1.67;0.93;;;10.20;62.70;;;;;;6156461;28;20058;-72
2021/11/27 14:37:52;;;;;;;2.35;0.80;;;9.90;62.50;;;;;;6172652;28;20039;-72
2021/11/27 14:41:01;;;;;;;1.85;0.73;;;9.70;62.60;;;;;;6156207;28;20042;-72
2021/11/27 14:44:05;;;;;;;1.45;0.50;;;9.50;62.70;;;;;;6147233;28;20046;-72
2021/11/27 14:47:09;;;;;;;0.40;0.40;;;9.30;62.60;;;;;;6158089;28;20130;-73
2021/11/27 14:50:13;;;;;;;1.30;0.57;;;9.10;62.90;;;;;;6162955;28;20046;-72
2021/11/27 14:53:14;;;;;;;1.45;0.57;;;9.00;63.30;;;;;;6195985;28;20038;-72
2021/11/27 14:56:15;;;;;;;4.28;0.63;;;8.90;63.50;;;;;;6163623;28;20041;-71
2021/11/27 14:59:16;;;;;;;0.65;0.60;;;9.00;63.80;;;;;;6196820;28;20061;-72
2021/11/27 15:02:27;;;;;;;2.20;0.82;;;9.00;64.00;;;;;;6178782;28;20414;-72
2021/11/27 15:05:28;;;;;;;1.42;0.93;;;9.00;63.60;;;;;;6173826;28;20418;-72
2021/11/27 15:08:29;;;;;;;4.72;0.75;;;9.00;63.70;;;;;;6196240;28;20062;-72
2021/11/27 15:11:30;;;;;;;1.73;0.90;;;8.90;63.90;;;;;;6196530;28;20451;-72
2021/11/27 15:14:34;;;;;;;3.13;1.33;;;8.90;63.90;;;;;;6176616;28;20136;-72
2021/11/27 15:17:36;;;;;;;2.55;1.48;;;8.80;64.20;;;;;;6196487;28;20034;-72
2021/11/27 15:20:40;;;;;;;3.90;1.42;;;8.80;64.40;;;;;;6196752;28;20038;-73
2021/11/27 15:23:41;;;;;;;2.17;1.48;;;8.80;64.40;;;;;;6195062;28;20125;-73
2021/11/27 15:26:42;;;;;;;1.85;1.15;;;8.70;64.30;;;;;;6196935;28;20495;-72
2021/11/27 15:29:43;;;;;;;3.53;1.70;;;8.70;64.60;;;;;;6150143;28;20120;-72
2021/11/27 15:32:45;;;;;;;2.53;1.65;;;8.60;64.70;;;;;;6178088;28;20038;-72
2021/11/27 15:35:46;;;;;;;2.85;1.45;;;8.50;65.00;;;;;;6194726;28;20054;-72
2021/11/27 15:38:48;;;;;;;9.50;2.08;;;8.50;65.00;;;;;;6178954;28;20121;-72
2021/11/27 15:41:49;;;;;;;2.78;1.55;;;8.50;65.10;;;;;;6195994;28;20346;-71
2021/11/27 15:44:51;;;;;;;2.47;1.70;;;8.60;65.20;;;;;;6178853;28;20093;-72
2021/11/27 15:47:52;;;;;;;2.72;1.52;;;8.70;65.10;;;;;;6164284;28;20038;-72
2021/11/27 15:50:53;;;;;;;7.47;2.88;;;8.70;65.00;;;;;;6163373;28;20493;-72
2021/11/27 15:53:54;;;;;;;9.85;4.15;;;8.80;65.00;;;;;;6165846;28;20047;-73
2021/11/27 15:56:55;;;;;;;10.85;5.60;;;8.90;65.10;;;;;;6178991;28;20360;-72
2021/11/27 15:59:56;;;;;;;9.50;5.20;;;9.00;65.30;;;;;;6210904;28;20045;-72